Time;durP1;ratioP1;P1;durP2;ratioP2;P2;SDS_P1;SDS_P2;PMS_P1;PMS_P2;Temp;Humidity;BMP_temperature;BMP_pressure;BME280_temperature;BME280_humidity;BME280_pressure;Samples;Min_cycle;Max_cycle;Signal;HPM_P1;HPM_P2
2023/07/24 00:01:47;;;;;;;9.15;5.93;;;;;;;;;;6160870;23;20022;-81
2023/07/24 00:04:13;;;;;;;9.52;6.28;;;;;;;;;;6161508;23;20096;-81
2023/07/24 00:06:41;;;;;;;10.02;6.53;;;;;;;;;;6161916;23;20025;-79
2023/07/24 00:09:08;;;;;;;10.32;6.68;;;;;;;;;;6162416;23;20097;-80
2023/07/24 00:11:34;;;;;;;9.27;6.57;;;;;;;;;;6161763;23;20488;-81
2023/07/24 00:14:01;;;;;;;9.57;6.60;;;;;;;;;;6161965;23;20179;-82
2023/07/24 00:16:27;;;;;;;8.55;5.75;;;;;;;;;;6161996;23;20088;-81
2023/07/24 00:18:54;;;;;;;10.82;6.60;;;;;;;;;;6161160;23;20025;-81
2023/07/24 00:21:20;;;;;;;9.55;6.07;;;;;;;;;;6138902;23;20339;-80
2023/07/24 00:23:48;;;;;;;10.02;6.13;;;;;;;;;;6159798;23;20509;-78
2023/07/24 00:26:15;;;;;;;9.80;7.00;;;;;;;;;;6159008;23;20092;-78
2023/07/24 00:28:41;;;;;;;10.18;6.63;;;;;;;;;;6159272;23;20077;-78
2023/07/24 00:31:08;;;;;;;9.50;5.85;;;;;;;;;;6159155;23;20097;-78
2023/07/24 00:33:35;;;;;;;9.63;6.25;;;;;;;;;;6156498;23;20021;-78
2023/07/24 00:36:01;;;;;;;10.50;7.25;;;;;;;;;;6155947;23;20331;-77
2023/07/24 00:38:28;;;;;;;9.48;6.35;;;;;;;;;;6156242;23;20092;-78
2023/07/24 00:40:56;;;;;;;10.60;6.45;;;;;;;;;;6156104;23;20108;-78
2023/07/24 00:43:22;;;;;;;13.95;6.55;;;;;;;;;;6156448;23;20100;-77
2023/07/24 00:45:49;;;;;;;9.10;6.38;;;;;;;;;;6155453;23;20024;-77
2023/07/24 00:48:16;;;;;;;10.27;6.30;;;;;;;;;;6154716;23;20020;-77
2023/07/24 00:50:44;;;;;;;9.25;6.18;;;;;;;;;;6154990;23;20021;-79
2023/07/24 00:53:12;;;;;;;11.38;6.57;;;;;;;;;;6155750;23;20040;-79
2023/07/24 00:55:39;;;;;;;9.32;6.20;;;;;;;;;;6158513;23;20064;-78
2023/07/24 00:58:07;;;;;;;9.55;5.95;;;;;;;;;;6158395;23;20024;-78
2023/07/24 01:00:33;;;;;;;9.23;6.32;;;;;;;;;;6155242;23;20017;-76
2023/07/24 01:03:00;;;;;;;9.73;5.93;;;;;;;;;;6155537;23;20029;-78
2023/07/24 01:05:27;;;;;;;9.52;6.00;;;;;;;;;;6154208;23;20024;-78
2023/07/24 01:07:54;;;;;;;10.30;6.25;;;;;;;;;;6154473;23;20505;-78
2023/07/24 01:10:20;;;;;;;9.02;6.10;;;;;;;;;;6155440;23;20369;-79
2023/07/24 01:12:59;;;;;;;9.48;6.47;;;;;;;;;;6158614;23;20454;-77
2023/07/24 01:15:34;;;;;;;10.35;6.90;;;;;;;;;;6155130;23;20465;-78
2023/07/24 01:18:04;;;;;;;9.57;6.22;;;;;;;;;;6156342;23;20023;-80
2023/07/24 01:20:31;;;;;;;;;;;;;;;;;;6158481;23;20023;-79
2023/07/24 01:23:15;;;;;;;11.50;6.97;;;;;;;;;;6160897;23;19984;-79
2023/07/24 01:25:55;;;;;;;11.15;6.15;;;;;;;;;;6161056;23;20025;-78
2023/07/24 01:28:22;;;;;;;9.38;6.30;;;;;;;;;;6160583;23;20462;-79
2023/07/24 01:30:48;;;;;;;9.68;6.03;;;;;;;;;;6160210;23;20026;-79
2023/07/24 01:33:15;;;;;;;9.30;6.22;;;;;;;;;;6161251;23;20100;-79
2023/07/24 01:35:44;;;;;;;10.23;6.38;;;;;;;;;;6161124;23;20096;-79
2023/07/24 01:38:11;;;;;;;10.18;6.72;;;;;;;;;;6160945;23;20454;-80
2023/07/24 01:40:38;;;;;;;9.88;5.85;;;;;;;;;;6159439;23;20358;-77
2023/07/24 01:43:06;;;;;;;10.73;7.03;;;;;;;;;;6156976;23;20516;-78
2023/07/24 01:45:32;;;;;;;9.18;5.68;;;;;;;;;;6158449;23;20462;-78
2023/07/24 01:47:59;;;;;;;9.93;6.85;;;;;;;;;;6159910;23;20444;-79
2023/07/24 01:50:26;;;;;;;10.00;6.40;;;;;;;;;;6158493;23;20022;-78
2023/07/24 01:52:53;;;;;;;10.63;7.03;;;;;;;;;;6157791;23;20097;-78
2023/07/24 01:55:19;;;;;;;9.80;6.38;;;;;;;;;;6156531;23;20100;-77
2023/07/24 01:57:46;;;;;;;10.15;6.88;;;;;;;;;;6154327;23;20040;-77
2023/07/24 02:00:14;;;;;;;10.35;6.95;;;;;;;;;;6153932;23;20037;-77
2023/07/24 02:02:41;;;;;;;10.02;6.35;;;;;;;;;;6156515;23;20022;-78
2023/07/24 02:05:08;;;;;;;11.00;6.78;;;;;;;;;;6160093;23;20025;-78
2023/07/24 02:07:34;;;;;;;9.35;6.05;;;;;;;;;;6158323;23;20061;-79
2023/07/24 02:10:01;;;;;;;10.35;6.75;;;;;;;;;;6158246;23;20441;-78
2023/07/24 02:12:28;;;;;;;9.77;6.40;;;;;;;;;;6157472;23;20029;-78
2023/07/24 02:14:55;;;;;;;10.95;7.05;;;;;;;;;;6161223;23;20026;-78
2023/07/24 02:17:24;;;;;;;11.93;7.13;;;;;;;;;;6159850;23;20350;-78
2023/07/24 02:19:51;;;;;;;10.60;7.15;;;;;;;;;;6156430;23;20092;-78
2023/07/24 02:22:17;;;;;;;9.93;6.25;;;;;;;;;;6156484;23;20362;-79
2023/07/24 02:24:44;;;;;;;10.98;7.20;;;;;;;;;;6159568;23;20045;-78
2023/07/24 02:27:14;;;;;;;9.65;6.70;;;;;;;;;;6157715;23;20092;-78
2023/07/24 02:29:40;;;;;;;10.65;7.18;;;;;;;;;;6156764;23;20052;-78
2023/07/24 02:32:07;;;;;;;11.20;7.28;;;;;;;;;;6156029;23;20021;-78
2023/07/24 02:34:35;;;;;;;13.85;7.78;;;;;;;;;;6157746;23;20033;-78
2023/07/24 02:37:02;;;;;;;12.73;7.72;;;;;;;;;;6157742;23;20052;-78
2023/07/24 02:39:28;;;;;;;11.18;7.28;;;;;;;;;;6157394;23;20024;-78
2023/07/24 02:41:55;;;;;;;11.77;7.40;;;;;;;;;;6157422;23;20025;-78
2023/07/24 02:44:21;;;;;;;10.98;7.47;;;;;;;;;;6157985;23;20021;-77
2023/07/24 02:46:48;;;;;;;11.18;7.80;;;;;;;;;;6156538;23;20048;-78
2023/07/24 02:49:14;;;;;;;10.98;7.45;;;;;;;;;;6157145;23;20100;-78
2023/07/24 02:51:42;;;;;;;13.52;7.70;;;;;;;;;;6156439;23;20201;-76
2023/07/24 02:54:09;;;;;;;11.27;7.65;;;;;;;;;;6156739;23;20109;-77
2023/07/24 02:56:35;;;;;;;11.48;7.40;;;;;;;;;;6155977;23;20052;-80
2023/07/24 02:59:02;;;;;;;11.60;7.22;;;;;;;;;;6157129;23;20022;-78
2023/07/24 03:01:29;;;;;;;12.80;7.35;;;;;;;;;;6155823;23;20426;-77
2023/07/24 03:03:55;;;;;;;10.52;7.32;;;;;;;;;;6158243;23;20021;-77
2023/07/24 03:06:22;;;;;;;11.73;7.85;;;;;;;;;;6157171;23;20263;-77
2023/07/24 03:08:50;;;;;;;11.60;7.43;;;;;;;;;;6155172;23;20539;-75
2023/07/24 03:11:16;;;;;;;13.23;8.85;;;;;;;;;;6154196;23;20044;-77
2023/07/24 03:13:43;;;;;;;12.35;7.30;;;;;;;;;;6156164;23;20029;-78
2023/07/24 03:16:09;;;;;;;15.52;8.68;;;;;;;;;;6155472;23;20021;-76
2023/07/24 03:18:36;;;;;;;12.93;7.40;;;;;;;;;;6156843;23;20022;-78
2023/07/24 03:21:04;;;;;;;13.98;8.07;;;;;;;;;;6158295;23;20024;-78
2023/07/24 03:23:30;;;;;;;14.32;7.75;;;;;;;;;;6159054;23;20096;-78
2023/07/24 03:25:58;;;;;;;10.90;7.50;;;;;;;;;;6158848;23;20529;-77
2023/07/24 03:28:25;;;;;;;12.30;7.55;;;;;;;;;;6158508;23;20458;-78
2023/07/24 03:30:51;;;;;;;12.57;7.80;;;;;;;;;;6158821;23;20073;-77
2023/07/24 03:33:18;;;;;;;11.52;8.07;;;;;;;;;;6158918;23;20092;-78
2023/07/24 03:35:44;;;;;;;13.18;7.97;;;;;;;;;;6160790;23;20355;-79
2023/07/24 03:38:11;;;;;;;11.85;7.47;;;;;;;;;;6160388;23;20024;-78
2023/07/24 03:40:38;;;;;;;14.55;8.68;;;;;;;;;;6157270;23;20545;-78
2023/07/24 03:43:05;;;;;;;12.50;7.72;;;;;;;;;;6159119;23;20073;-79
2023/07/24 03:45:32;;;;;;;13.15;8.07;;;;;;;;;;6158403;23;20017;-78
2023/07/24 03:47:59;;;;;;;12.80;7.90;;;;;;;;;;6159985;23;20022;-78
2023/07/24 03:50:25;;;;;;;13.93;8.43;;;;;;;;;;6159285;23;20049;-78
2023/07/24 03:52:52;;;;;;;13.05;8.13;;;;;;;;;;6160358;23;20040;-79
2023/07/24 03:55:18;;;;;;;14.10;8.23;;;;;;;;;;6160641;23;20192;-78
2023/07/24 03:57:45;;;;;;;15.90;8.27;;;;;;;;;;6159443;23;20104;-78
2023/07/24 04:00:14;;;;;;;13.02;8.73;;;;;;;;;;6159050;23;20466;-78
2023/07/24 04:02:41;;;;;;;14.43;8.43;;;;;;;;;;6160113;23;20411;-78
2023/07/24 04:05:08;;;;;;;14.65;8.70;;;;;;;;;;6159717;23;20018;-78
2023/07/24 04:07:34;;;;;;;16.52;9.63;;;;;;;;;;6159184;23;20356;-77
2023/07/24 04:10:01;;;;;;;15.65;8.65;;;;;;;;;;6159478;23;20021;-76
2023/07/24 04:12:30;;;;;;;14.88;8.65;;;;;;;;;;6158823;23;20018;-78
2023/07/24 04:14:56;;;;;;;14.48;8.10;;;;;;;;;;6159405;23;20100;-78
2023/07/24 04:17:24;;;;;;;15.00;8.65;;;;;;;;;;6159650;23;20028;-78
2023/07/24 04:19:51;;;;;;;14.18;8.98;;;;;;;;;;6158942;23;20463;-79
2023/07/24 04:22:17;;;;;;;14.43;8.82;;;;;;;;;;6159914;23;20021;-78
2023/07/24 04:24:44;;;;;;;12.77;7.47;;;;;;;;;;6162199;23;20022;-77
2023/07/24 04:27:10;;;;;;;14.15;8.50;;;;;;;;;;6159080;23;20032;-78
2023/07/24 04:29:37;;;;;;;15.30;9.43;;;;;;;;;;6158922;23;20562;-79
2023/07/24 04:32:04;;;;;;;14.43;8.38;;;;;;;;;;6159176;23;20025;-79
2023/07/24 04:34:33;;;;;;;13.80;8.77;;;;;;;;;;6163893;23;20404;-79
2023/07/24 04:36:59;;;;;;;14.40;9.23;;;;;;;;;;6159394;23;20067;-78
2023/07/24 04:39:26;;;;;;;14.45;9.27;;;;;;;;;;6159571;23;20078;-79
2023/07/24 04:41:53;;;;;;;16.10;10.00;;;;;;;;;;6161378;23;20028;-79
2023/07/24 04:44:19;;;;;;;16.17;9.20;;;;;;;;;;6161317;23;20024;-79
2023/07/24 04:46:46;;;;;;;12.80;8.82;;;;;;;;;;6161632;23;20022;-77
2023/07/24 04:49:12;;;;;;;13.48;8.90;;;;;;;;;;6162012;23;20022;-80
2023/07/24 04:51:40;;;;;;;16.48;8.70;;;;;;;;;;6160024;23;20021;-79
2023/07/24 04:54:07;;;;;;;17.85;9.52;;;;;;;;;;6160571;23;20466;-78
2023/07/24 04:56:33;;;;;;;15.35;8.88;;;;;;;;;;6158512;23;20524;-77
2023/07/24 04:59:00;;;;;;;14.63;8.57;;;;;;;;;;6158285;23;20021;-78
2023/07/24 05:01:26;;;;;;;13.23;9.07;;;;;;;;;;6160795;23;20045;-79
2023/07/24 05:03:53;;;;;;;13.25;7.63;;;;;;;;;;6162822;23;20013;-79
2023/07/24 05:06:19;;;;;;;13.02;8.05;;;;;;;;;;6156948;23;20307;-78
2023/07/24 05:08:47;;;;;;;13.68;7.88;;;;;;;;;;6156995;23;20018;-79
2023/07/24 05:11:14;;;;;;;13.25;8.00;;;;;;;;;;6155735;23;20021;-79
2023/07/24 05:13:40;;;;;;;14.05;8.73;;;;;;;;;;6156502;23;20028;-78
2023/07/24 05:16:07;;;;;;;14.35;9.55;;;;;;;;;;6156829;23;20101;-79
2023/07/24 05:18:33;;;;;;;12.75;8.13;;;;;;;;;;6156539;23;20022;-79
2023/07/24 05:21:00;;;;;;;14.77;8.18;;;;;;;;;;6157973;23;20023;-79
2023/07/24 05:23:26;;;;;;;13.05;8.30;;;;;;;;;;6160533;23;20021;-79
2023/07/24 05:25:59;;;;;;;12.77;8.23;;;;;;;;;;6159296;23;20073;-76
2023/07/24 05:28:26;;;;;;;11.88;7.72;;;;;;;;;;6158828;23;20025;-79
2023/07/24 05:30:52;;;;;;;12.20;8.00;;;;;;;;;;6157868;23;20024;-78
2023/07/24 05:33:19;;;;;;;11.27;7.15;;;;;;;;;;6158647;23;20021;-79
2023/07/24 05:35:45;;;;;;;13.07;8.05;;;;;;;;;;6157962;23;20362;-78
2023/07/24 05:38:12;;;;;;;12.52;8.10;;;;;;;;;;6160567;23;20448;-78
2023/07/24 05:40:38;;;;;;;12.93;8.32;;;;;;;;;;6157489;23;20032;-77
2023/07/24 05:43:06;;;;;;;13.40;8.50;;;;;;;;;;6157179;23;20100;-78
2023/07/24 05:45:33;;;;;;;12.85;8.48;;;;;;;;;;6157651;23;20069;-77
2023/07/24 05:47:59;;;;;;;13.00;7.85;;;;;;;;;;6157845;23;20022;-79
2023/07/24 05:50:26;;;;;;;12.93;7.97;;;;;;;;;;6157473;23;20028;-77
2023/07/24 05:52:52;;;;;;;13.27;8.07;;;;;;;;;;6154521;23;20018;-78
2023/07/24 05:55:19;;;;;;;11.48;7.43;;;;;;;;;;6154514;23;20049;-78
2023/07/24 05:57:45;;;;;;;13.23;7.75;;;;;;;;;;6156808;23;20068;-78
2023/07/24 06:00:14;;;;;;;11.55;7.85;;;;;;;;;;6157410;23;20024;-78
2023/07/24 06:02:40;;;;;;;13.35;8.73;;;;;;;;;;6157434;23;20073;-77
2023/07/24 06:05:08;;;;;;;13.93;8.32;;;;;;;;;;6157505;23;20026;-76
2023/07/24 06:07:34;;;;;;;11.38;7.47;;;;;;;;;;6157505;23;20028;-78
2023/07/24 06:10:01;;;;;;;14.85;8.05;;;;;;;;;;6156988;23;20021;-78
2023/07/24 06:12:27;;;;;;;11.82;7.50;;;;;;;;;;6157627;23;20025;-78
2023/07/24 06:14:54;;;;;;;12.05;8.07;;;;;;;;;;6172712;23;20026;-78
2023/07/24 06:17:21;;;;;;;10.02;7.00;;;;;;;;;;6168669;23;20089;-77
2023/07/24 06:19:48;;;;;;;12.40;7.93;;;;;;;;;;6176132;23;20069;-79
2023/07/24 06:22:15;;;;;;;12.18;7.75;;;;;;;;;;6158105;23;20022;-78
2023/07/24 06:24:42;;;;;;;11.85;7.78;;;;;;;;;;6161167;23;20536;-77
2023/07/24 06:27:08;;;;;;;15.13;7.70;;;;;;;;;;6159073;23;20025;-77
2023/07/24 06:29:35;;;;;;;11.15;7.45;;;;;;;;;;6160474;23;20029;-79
2023/07/24 06:32:01;;;;;;;10.43;7.22;;;;;;;;;;6173950;23;20049;-78
2023/07/24 06:34:29;;;;;;;11.18;7.28;;;;;;;;;;6181598;23;20009;-78
2023/07/24 06:36:56;;;;;;;13.10;7.53;;;;;;;;;;6162078;23;20022;-77
2023/07/24 06:39:22;;;;;;;12.98;8.15;;;;;;;;;;6157662;23;20017;-77
2023/07/24 06:41:49;;;;;;;12.60;7.10;;;;;;;;;;6159365;23;20474;-78
2023/07/24 06:44:15;;;;;;;12.73;7.90;;;;;;;;;;6159327;23;20021;-77
2023/07/24 06:46:42;;;;;;;12.52;7.32;;;;;;;;;;6160034;23;20024;-77
2023/07/24 06:49:10;;;;;;;12.55;8.15;;;;;;;;;;6160086;23;20026;-77
2023/07/24 06:51:38;;;;;;;10.93;7.60;;;;;;;;;;6164191;23;20084;-79
2023/07/24 06:54:04;;;;;;;11.57;7.70;;;;;;;;;;6157451;23;20480;-77
2023/07/24 06:56:31;;;;;;;13.95;8.48;;;;;;;;;;6157359;23;20032;-77
2023/07/24 06:58:58;;;;;;;12.68;7.65;;;;;;;;;;6157499;23;20024;-79
2023/07/24 07:01:24;;;;;;;11.95;8.02;;;;;;;;;;6156278;23;20033;-77
2023/07/24 07:03:51;;;;;;;13.45;7.93;;;;;;;;;;6156529;23;20028;-77
2023/07/24 07:06:17;;;;;;;11.00;7.63;;;;;;;;;;6157501;23;20028;-77
2023/07/24 07:08:45;;;;;;;12.45;7.78;;;;;;;;;;6158574;23;20018;-77
2023/07/24 07:11:12;;;;;;;14.70;8.13;;;;;;;;;;6155288;23;20025;-76
2023/07/24 07:13:38;;;;;;;11.55;7.50;;;;;;;;;;6156029;23;20018;-77
2023/07/24 07:16:05;;;;;;;11.27;7.45;;;;;;;;;;6156412;23;20373;-76
2023/07/24 07:18:32;;;;;;;13.48;8.63;;;;;;;;;;6156666;23;20021;-76
2023/07/24 07:20:58;;;;;;;14.15;8.65;;;;;;;;;;6155885;23;20060;-76
2023/07/24 07:23:25;;;;;;;12.05;8.63;;;;;;;;;;6156051;23;20447;-75
2023/07/24 07:25:53;;;;;;;15.45;9.00;;;;;;;;;;6155818;23;20028;-75
2023/07/24 07:28:20;;;;;;;15.02;9.25;;;;;;;;;;6155930;23;20072;-75
2023/07/24 07:30:46;;;;;;;12.98;8.65;;;;;;;;;;6153443;23;20370;-75
2023/07/24 07:33:13;;;;;;;11.43;7.65;;;;;;;;;;6154844;23;20025;-75
2023/07/24 07:35:39;;;;;;;10.35;6.78;;;;;;;;;;6154990;23;20049;-75
2023/07/24 07:38:06;;;;;;;11.77;7.28;;;;;;;;;;6154948;23;20100;-75
2023/07/24 07:40:33;;;;;;;13.35;7.82;;;;;;;;;;6158094;23;20021;-80
2023/07/24 07:43:00;;;;;;;11.70;7.50;;;;;;;;;;6166644;23;20350;-76
2023/07/24 07:45:27;;;;;;;12.95;8.18;;;;;;;;;;6156384;23;20017;-76
2023/07/24 07:47:54;;;;;;;12.85;7.68;;;;;;;;;;6155041;23;20025;-75
2023/07/24 07:50:20;;;;;;;12.75;8.35;;;;;;;;;;6156017;23;20022;-75
2023/07/24 07:52:51;;;;;;;13.00;7.85;;;;;;;;;;6151163;23;20032;-77
2023/07/24 07:55:18;;;;;;;13.77;8.00;;;;;;;;;;6154351;23;20017;-74
2023/07/24 07:57:45;;;;;;;12.63;8.65;;;;;;;;;;6152187;23;20049;-79
2023/07/24 08:00:14;;;;;;;12.68;7.82;;;;;;;;;;6154182;23;20026;-76
2023/07/24 08:02:41;;;;;;;13.68;8.52;;;;;;;;;;6154783;23;20545;-75
2023/07/24 08:05:08;;;;;;;15.00;8.23;;;;;;;;;;6150304;23;20553;-74
2023/07/24 08:07:35;;;;;;;13.38;8.27;;;;;;;;;;6151729;23;20339;-75
2023/07/24 08:10:01;;;;;;;13.88;8.27;;;;;;;;;;6150819;23;20611;-76
2023/07/24 08:12:28;;;;;;;13.50;7.57;;;;;;;;;;6151455;23;20064;-75
2023/07/24 08:14:55;;;;;;;12.50;7.75;;;;;;;;;;6151533;23;20029;-75
2023/07/24 08:17:23;;;;;;;13.40;8.38;;;;;;;;;;6151588;23;20017;-74
2023/07/24 08:19:49;;;;;;;12.85;8.05;;;;;;;;;;6150549;23;20038;-74
2023/07/24 08:22:16;;;;;;;13.90;7.13;;;;;;;;;;6150426;23;20501;-76
2023/07/24 08:24:44;;;;;;;10.95;6.75;;;;;;;;;;6151264;23;20049;-75
2023/07/24 08:27:11;;;;;;;10.90;6.88;;;;;;;;;;6150720;23;20445;-76
2023/07/24 08:29:38;;;;;;;11.48;7.00;;;;;;;;;;6150956;23;20018;-76
2023/07/24 08:32:05;;;;;;;9.88;6.03;;;;;;;;;;6150940;23;20029;-75
2023/07/24 08:34:33;;;;;;;11.48;6.80;;;;;;;;;;6151830;23;20028;-75
2023/07/24 08:36:59;;;;;;;8.43;5.60;;;;;;;;;;6149035;23;20358;-74
2023/07/24 08:39:26;;;;;;;10.38;6.78;;;;;;;;;;6149429;23;20431;-74
2023/07/24 08:41:53;;;;;;;9.70;5.70;;;;;;;;;;6150970;23;20021;-73
2023/07/24 08:44:19;;;;;;;10.82;6.10;;;;;;;;;;6151373;23;20040;-75
2023/07/24 08:46:47;;;;;;;9.90;6.35;;;;;;;;;;6151323;23;20021;-74
2023/07/24 08:49:14;;;;;;;11.98;6.13;;;;;;;;;;6151143;23;20418;-75
2023/07/24 08:51:42;;;;;;;8.77;5.65;;;;;;;;;;6150419;23;20021;-75
2023/07/24 08:54:10;;;;;;;8.88;5.38;;;;;;;;;;6151295;23;20044;-75
2023/07/24 08:56:38;;;;;;;11.38;5.75;;;;;;;;;;6150631;23;20531;-74
2023/07/24 08:59:04;;;;;;;9.82;6.03;;;;;;;;;;6151259;23;20021;-75
2023/07/24 09:01:31;;;;;;;10.88;5.88;;;;;;;;;;6150608;23;20027;-75
2023/07/24 09:03:58;;;;;;;10.57;6.53;;;;;;;;;;6151221;23;20024;-75
2023/07/24 09:06:24;;;;;;;9.85;6.63;;;;;;;;;;6150490;23;20112;-76
2023/07/24 09:08:55;;;;;;;11.00;6.72;;;;;;;;;;6150746;23;20021;-76
2023/07/24 09:11:21;;;;;;;11.13;6.78;;;;;;;;;;6150135;23;20021;-75
2023/07/24 09:13:49;;;;;;;10.23;6.05;;;;;;;;;;6150607;23;20473;-75
2023/07/24 09:16:23;;;;;;;9.70;6.18;;;;;;;;;;6149979;23;20070;-74
2023/07/24 09:18:51;;;;;;;10.55;6.38;;;;;;;;;;6150644;23;20386;-76
2023/07/24 09:21:28;;;;;;;10.05;6.90;;;;;;;;;;6150058;23;20100;-76
2023/07/24 09:23:57;;;;;;;12.70;7.53;;;;;;;;;;6150810;23;20025;-75
2023/07/24 09:26:23;;;;;;;10.88;7.05;;;;;;;;;;6150921;23;20022;-76
2023/07/24 09:28:53;;;;;;;11.23;7.07;;;;;;;;;;6151018;23;20022;-76
2023/07/24 09:31:20;;;;;;;12.35;6.95;;;;;;;;;;6152363;23;20017;-81
2023/07/24 09:33:46;;;;;;;12.23;7.50;;;;;;;;;;6152893;23;20017;-76
2023/07/24 09:36:13;;;;;;;10.75;6.93;;;;;;;;;;6150000;23;20235;-76
2023/07/24 09:38:41;;;;;;;11.93;7.65;;;;;;;;;;6150548;23;20036;-76
2023/07/24 09:41:09;;;;;;;9.98;6.85;;;;;;;;;;6148974;23;20021;-75
2023/07/24 09:43:36;;;;;;;12.45;8.05;;;;;;;;;;6150285;23;20098;-76
2023/07/24 09:46:05;;;;;;;13.40;8.63;;;;;;;;;;6149558;23;20025;-76
2023/07/24 09:48:32;;;;;;;12.87;7.87;;;;;;;;;;6149896;23;20025;-74
2023/07/24 09:51:00;;;;;;;12.43;7.35;;;;;;;;;;6149645;23;20239;-75
2023/07/24 09:53:33;;;;;;;11.65;7.20;;;;;;;;;;6150170;23;20022;-75
2023/07/24 09:56:02;;;;;;;12.52;7.35;;;;;;;;;;6150502;23;20060;-75
2023/07/24 09:58:30;;;;;;;11.77;6.03;;;;;;;;;;6149659;23;20100;-76
2023/07/24 10:00:58;;;;;;;10.05;6.05;;;;;;;;;;6149320;23;20021;-75
2023/07/24 10:03:26;;;;;;;9.45;5.95;;;;;;;;;;6149353;23;20366;-75
2023/07/24 10:05:54;;;;;;;10.88;6.53;;;;;;;;;;6149827;23;20022;-74
2023/07/24 10:08:21;;;;;;;10.07;6.18;;;;;;;;;;6150690;23;20287;-76
2023/07/24 10:10:51;;;;;;;9.35;5.82;;;;;;;;;;6149521;23;20018;-75
2023/07/24 10:13:19;;;;;;;10.68;5.90;;;;;;;;;;6150000;23;20056;-75
2023/07/24 10:15:48;;;;;;;9.50;5.78;;;;;;;;;;6150315;23;20024;-76
2023/07/24 10:18:16;;;;;;;9.07;6.30;;;;;;;;;;6150540;23;20025;-77
2023/07/24 10:20:43;;;;;;;8.30;5.00;;;;;;;;;;6149813;23;20018;-75
2023/07/24 10:23:11;;;;;;;8.50;5.18;;;;;;;;;;6149638;23;20081;-76
2023/07/24 10:25:40;;;;;;;8.77;5.72;;;;;;;;;;6150814;23;20022;-76
2023/07/24 10:28:11;;;;;;;7.85;5.05;;;;;;;;;;6149688;23;20028;-75
2023/07/24 10:30:38;;;;;;;9.45;5.10;;;;;;;;;;6152419;23;20024;-75
2023/07/24 10:33:07;;;;;;;8.88;5.40;;;;;;;;;;6152831;23;20029;-75
2023/07/24 10:35:38;;;;;;;9.20;5.65;;;;;;;;;;6152224;23;20017;-75
2023/07/24 10:38:05;;;;;;;8.73;5.10;;;;;;;;;;6152383;23;20025;-77
2023/07/24 10:40:33;;;;;;;7.25;4.60;;;;;;;;;;6151729;23;20072;-75
2023/07/24 10:43:01;;;;;;;8.50;5.05;;;;;;;;;;6151617;23;20100;-75
2023/07/24 10:45:39;;;;;;;10.00;5.13;;;;;;;;;;6152042;23;20022;-76
2023/07/24 10:48:11;;;;;;;9.23;5.32;;;;;;;;;;6152163;23;20296;-75
2023/07/24 10:50:39;;;;;;;9.55;5.07;;;;;;;;;;6151105;23;20037;-75
2023/07/24 10:53:05;;;;;;;8.13;4.70;;;;;;;;;;6151078;23;20524;-75
2023/07/24 10:55:32;;;;;;;9.20;5.20;;;;;;;;;;6151650;23;20032;-74
2023/07/24 10:57:58;;;;;;;6.75;4.57;;;;;;;;;;6152960;23;20023;-74
2023/07/24 11:00:27;;;;;;;8.10;4.47;;;;;;;;;;6152048;23;20028;-75
2023/07/24 11:02:54;;;;;;;7.97;4.90;;;;;;;;;;6151184;23;20451;-75
2023/07/24 11:05:22;;;;;;;9.05;4.90;;;;;;;;;;6151533;23;20033;-75
2023/07/24 11:07:49;;;;;;;8.57;5.07;;;;;;;;;;6151591;23;20324;-77
2023/07/24 11:10:16;;;;;;;8.02;4.80;;;;;;;;;;6151287;23;20017;-75
2023/07/24 11:12:44;;;;;;;6.70;4.10;;;;;;;;;;6151627;23;20021;-77
2023/07/24 11:15:11;;;;;;;7.30;4.43;;;;;;;;;;6151201;23;20076;-75
2023/07/24 11:17:40;;;;;;;9.20;4.90;;;;;;;;;;6151717;23;20101;-76
2023/07/24 11:20:09;;;;;;;7.72;3.95;;;;;;;;;;6150348;23;20477;-76
2023/07/24 11:22:39;;;;;;;6.93;3.65;;;;;;;;;;6151152;23;20512;-76
2023/07/24 11:25:06;;;;;;;;;;;;;;;;;;6152131;23;20017;-76
2023/07/24 11:27:33;;;;;;;7.97;3.80;;;;;;;;;;6151217;23;19920;-76
2023/07/24 11:30:00;;;;;;;7.10;3.75;;;;;;;;;;6150842;23;20021;-76
2023/07/24 11:32:26;;;;;;;6.93;4.18;;;;;;;;;;6150917;23;20022;-76
2023/07/24 11:34:53;;;;;;;6.50;3.80;;;;;;;;;;6151360;23;20466;-76
2023/07/24 11:37:20;;;;;;;7.97;4.38;;;;;;;;;;6153305;23;20022;-77
2023/07/24 11:39:57;;;;;;;9.73;5.18;;;;;;;;;;6153522;23;20022;-75
2023/07/24 11:42:26;;;;;;;7.88;4.13;;;;;;;;;;6151423;23;20032;-76
2023/07/24 11:44:53;;;;;;;10.35;5.07;;;;;;;;;;6150856;23;20048;-76
2023/07/24 11:47:22;;;;;;;8.07;4.45;;;;;;;;;;6161146;23;20426;-79
2023/07/24 11:49:58;;;;;;;7.95;4.60;;;;;;;;;;6161254;23;20023;-82
2023/07/24 11:52:24;;;;;;;5.88;3.75;;;;;;;;;;6155375;23;20627;-76
2023/07/24 11:55:00;;;;;;;5.40;3.42;;;;;;;;;;6151102;23;20028;-76
2023/07/24 11:57:28;;;;;;;6.55;3.72;;;;;;;;;;6151276;23;20025;-77
2023/07/24 11:59:57;;;;;;;6.00;3.55;;;;;;;;;;6151045;23;20462;-77
2023/07/24 12:02:24;;;;;;;7.13;3.92;;;;;;;;;;6151096;23;20469;-76
2023/07/24 12:04:56;;;;;;;7.25;3.40;;;;;;;;;;6150710;23;20033;-76
2023/07/24 12:07:23;;;;;;;8.20;4.20;;;;;;;;;;6150999;23;20018;-76
2023/07/24 12:09:52;;;;;;;6.72;4.00;;;;;;;;;;6151389;23;20040;-76
2023/07/24 12:12:20;;;;;;;6.38;3.95;;;;;;;;;;6151139;23;20021;-76
2023/07/24 12:14:47;;;;;;;6.75;3.88;;;;;;;;;;6151417;23;20096;-76
2023/07/24 12:17:19;;;;;;;7.35;4.10;;;;;;;;;;6151424;23;20023;-76
2023/07/24 12:19:46;;;;;;;7.50;4.70;;;;;;;;;;6152046;23;20025;-76
2023/07/24 12:22:13;;;;;;;7.32;4.47;;;;;;;;;;6151324;23;20048;-76
2023/07/24 12:24:40;;;;;;;8.13;4.70;;;;;;;;;;6152119;23;20104;-76
2023/07/24 12:27:07;;;;;;;6.75;3.70;;;;;;;;;;6151413;23;20080;-77
2023/07/24 12:29:35;;;;;;;6.97;4.40;;;;;;;;;;6152071;23;20100;-77
2023/07/24 12:32:03;;;;;;;7.30;4.53;;;;;;;;;;6155138;23;20044;-77
2023/07/24 12:34:29;;;;;;;9.13;4.97;;;;;;;;;;6168092;23;20060;-76
2023/07/24 12:36:56;;;;;;;7.47;4.40;;;;;;;;;;6151586;23;20028;-76
2023/07/24 12:39:23;;;;;;;8.32;4.88;;;;;;;;;;6151726;23;20037;-76
2023/07/24 12:41:49;;;;;;;7.32;5.32;;;;;;;;;;6151042;23;20018;-76
2023/07/24 12:44:16;;;;;;;7.45;4.13;;;;;;;;;;6151519;23;20028;-77
2023/07/24 12:46:44;;;;;;;8.05;4.63;;;;;;;;;;6150812;23;20480;-75
2023/07/24 12:49:11;;;;;;;8.05;4.60;;;;;;;;;;6151946;23;20105;-76
2023/07/24 12:51:37;;;;;;;7.18;4.60;;;;;;;;;;6152271;23;20023;-76
2023/07/24 12:54:03;;;;;;;7.32;4.60;;;;;;;;;;6151156;23;20496;-76
2023/07/24 12:56:30;;;;;;;8.52;4.93;;;;;;;;;;6151269;23;20017;-77
2023/07/24 12:58:57;;;;;;;8.60;4.35;;;;;;;;;;6150760;23;20344;-77
2023/07/24 13:01:23;;;;;;;8.65;5.07;;;;;;;;;;6150223;23;20096;-77
2023/07/24 13:03:51;;;;;;;6.95;4.50;;;;;;;;;;6150617;23;20053;-77
2023/07/24 13:06:18;;;;;;;6.35;4.05;;;;;;;;;;6150949;23;20025;-77
2023/07/24 13:08:44;;;;;;;8.35;4.22;;;;;;;;;;6150895;23;20022;-77
2023/07/24 13:11:11;;;;;;;7.30;4.28;;;;;;;;;;6152213;23;20024;-78
2023/07/24 13:13:38;;;;;;;6.63;4.28;;;;;;;;;;6150710;23;20047;-78
2023/07/24 13:16:05;;;;;;;8.82;4.03;;;;;;;;;;6150907;23;20022;-77
2023/07/24 13:18:31;;;;;;;7.95;3.80;;;;;;;;;;6150712;23;20022;-77
2023/07/24 13:20:59;;;;;;;7.00;4.00;;;;;;;;;;6150326;23;20410;-77
2023/07/24 13:23:26;;;;;;;6.05;4.10;;;;;;;;;;6150264;23;20478;-77
2023/07/24 13:25:53;;;;;;;6.63;3.97;;;;;;;;;;6150251;23;20026;-76
2023/07/24 13:28:20;;;;;;;6.88;3.95;;;;;;;;;;6150249;23;20025;-77
2023/07/24 13:30:47;;;;;;;6.70;3.60;;;;;;;;;;6158230;23;20032;-78
2023/07/24 13:33:13;;;;;;;6.72;3.65;;;;;;;;;;6175820;23;20036;-79
2023/07/24 13:35:40;;;;;;;8.85;3.85;;;;;;;;;;6166122;23;20100;-77
2023/07/24 13:38:08;;;;;;;8.00;4.53;;;;;;;;;;6152993;23;20026;-78
2023/07/24 13:40:35;;;;;;;6.60;3.67;;;;;;;;;;6151090;23;20017;-77
2023/07/24 13:43:02;;;;;;;6.88;4.25;;;;;;;;;;6149944;23;20021;-77
2023/07/24 13:45:28;;;;;;;7.00;4.03;;;;;;;;;;6151016;23;20022;-76
2023/07/24 13:47:55;;;;;;;6.43;4.25;;;;;;;;;;6150745;23;20049;-78
2023/07/24 13:50:21;;;;;;;6.20;3.25;;;;;;;;;;6150348;23;20024;-76
2023/07/24 13:52:48;;;;;;;6.65;3.78;;;;;;;;;;6149834;23;20021;-77
2023/07/24 13:55:16;;;;;;;6.00;3.42;;;;;;;;;;6150955;23;20033;-77
2023/07/24 13:57:43;;;;;;;7.03;3.90;;;;;;;;;;6150320;23;20053;-76
2023/07/24 14:00:10;;;;;;;7.60;3.83;;;;;;;;;;6149878;23;20476;-76
2023/07/24 14:02:37;;;;;;;7.25;3.80;;;;;;;;;;6150434;23;20036;-76
2023/07/24 14:05:04;;;;;;;6.65;4.18;;;;;;;;;;6150785;23;20021;-76
2023/07/24 14:07:30;;;;;;;6.50;3.58;;;;;;;;;;6150539;23;20362;-77
2023/07/24 14:09:57;;;;;;;6.60;3.92;;;;;;;;;;6150538;23;20530;-77
2023/07/24 14:12:25;;;;;;;7.95;3.78;;;;;;;;;;6150930;23;20022;-77
2023/07/24 14:14:52;;;;;;;7.40;4.28;;;;;;;;;;6150632;23;20040;-77
2023/07/24 14:17:19;;;;;;;7.93;4.70;;;;;;;;;;6151722;23;20028;-77
2023/07/24 14:19:46;;;;;;;8.77;4.32;;;;;;;;;;6151690;23;20462;-77
2023/07/24 14:22:15;;;;;;;6.70;3.63;;;;;;;;;;6151301;23;20374;-77
2023/07/24 14:24:41;;;;;;;8.03;3.97;;;;;;;;;;6152091;23;20022;-78
2023/07/24 14:27:08;;;;;;;7.50;3.88;;;;;;;;;;6152813;23;20049;-77
2023/07/24 14:29:36;;;;;;;7.13;3.90;;;;;;;;;;6151756;23;20041;-77
2023/07/24 14:32:02;;;;;;;8.25;4.28;;;;;;;;;;6153378;23;20021;-78
2023/07/24 14:34:29;;;;;;;6.57;3.70;;;;;;;;;;6153507;23;20033;-77
2023/07/24 14:36:55;;;;;;;6.03;3.22;;;;;;;;;;6156233;23;20310;-77